createdAt,value
2023-05-04T00:00:39.378Z,7.63
2023-05-04T00:03:05.895Z,7.63
2023-05-04T00:05:32.555Z,7.60
2023-05-04T00:07:59.014Z,8.18
2023-05-04T00:10:25.414Z,8.38
2023-05-04T00:12:51.783Z,7.85
2023-05-04T00:15:18.214Z,7.47
2023-05-04T00:17:44.594Z,6.78
2023-05-04T00:20:11.549Z,8.05
2023-05-04T00:22:38.011Z,6.97
2023-05-04T00:25:04.751Z,7.18
2023-05-04T00:27:31.113Z,8.00
2023-05-04T00:29:57.510Z,8.30
2023-05-04T00:32:23.860Z,8.07
2023-05-04T00:34:50.256Z,8.75
2023-05-04T00:37:16.644Z,8.73
2023-05-04T00:39:42.987Z,9.35
2023-05-04T00:42:09.472Z,8.70
2023-05-04T00:44:35.847Z,9.15
2023-05-04T00:47:02.750Z,9.35
2023-05-04T00:49:29.248Z,9.95
2023-05-04T00:51:56.567Z,8.27
2023-05-04T00:54:23.212Z,9.25
2023-05-04T00:56:49.926Z,8.77
2023-05-04T00:59:16.419Z,8.57
2023-05-04T01:01:42.832Z,8.73
2023-05-04T01:04:09.410Z,8.05
2023-05-04T01:06:38.779Z,8.02
2023-05-04T01:09:08.162Z,8.30
2023-05-04T01:11:38.732Z,7.78
2023-05-04T01:14:05.708Z,8.73
2023-05-04T01:16:32.140Z,7.90
2023-05-04T01:18:58.553Z,8.25
2023-05-04T01:21:29.391Z,9.13
2023-05-04T01:23:55.781Z,8.27
2023-05-04T01:26:22.102Z,7.15
2023-05-04T01:28:54.581Z,8.48
2023-05-04T01:31:22.722Z,8.50
2023-05-04T01:33:51.811Z,7.63
2023-05-04T01:36:19.540Z,8.65
2023-05-04T01:38:47.413Z,8.35
2023-05-04T01:41:13.752Z,8.45
2023-05-04T01:43:40.850Z,9.27
2023-05-04T01:46:07.361Z,8.65
2023-05-04T01:48:33.785Z,9.07
2023-05-04T01:51:00.171Z,9.48
2023-05-04T01:53:26.523Z,8.43
2023-05-04T01:55:53.178Z,9.18
2023-05-04T01:58:19.658Z,8.02
2023-05-04T02:00:46.198Z,9.77
2023-05-04T02:03:12.617Z,9.32
2023-05-04T02:05:39.098Z,8.70
2023-05-04T02:08:05.546Z,8.05
2023-05-04T02:10:31.899Z,8.38
2023-05-04T02:12:58.298Z,9.52
2023-05-04T02:15:24.831Z,9.05
2023-05-04T02:17:51.250Z,9.25
2023-05-04T02:20:17.775Z,8.05
2023-05-04T02:22:44.321Z,8.60
2023-05-04T02:25:10.668Z,7.53
2023-05-04T02:27:37.135Z,6.78
2023-05-04T02:30:03.778Z,7.65
2023-05-04T02:32:30.345Z,7.68
2023-05-04T02:34:56.771Z,6.25
2023-05-04T02:37:23.129Z,6.70
2023-05-04T02:39:49.487Z,6.32
2023-05-04T02:42:15.890Z,5.75
2023-05-04T02:44:42.231Z,6.10
2023-05-04T02:47:08.635Z,6.47
2023-05-04T02:49:35.052Z,7.10
2023-05-04T02:52:01.407Z,6.97
2023-05-04T02:54:27.814Z,6.68
2023-05-04T02:56:54.857Z,7.03
2023-05-04T02:59:21.221Z,7.03
2023-05-04T03:01:47.605Z,7.68
2023-05-04T03:04:14.247Z,7.63
2023-05-04T03:06:40.689Z,7.25
2023-05-04T03:09:07.059Z,7.13
2023-05-04T03:11:33.482Z,6.83
2023-05-04T03:13:59.832Z,6.75
2023-05-04T03:16:26.244Z,7.35
2023-05-04T03:18:52.876Z,7.78
2023-05-04T03:21:19.296Z,8.10
2023-05-04T03:23:45.669Z,6.73
2023-05-04T03:26:12.177Z,6.78
2023-05-04T03:28:38.559Z,6.82
2023-05-04T03:31:05.035Z,6.40
2023-05-04T03:33:31.889Z,6.13
2023-05-04T03:35:58.249Z,7.30
2023-05-04T03:38:24.622Z,8.32
2023-05-04T03:40:51.141Z,8.02
2023-05-04T03:43:17.622Z,8.43
2023-05-04T03:45:44.041Z,9.35
2023-05-04T03:48:10.758Z,7.67
2023-05-04T03:50:37.246Z,5.85
2023-05-04T03:53:03.746Z,7.38
2023-05-04T03:55:30.275Z,6.18
2023-05-04T03:57:56.957Z,5.80
2023-05-04T04:00:23.379Z,6.17
2023-05-04T04:02:49.991Z,7.88
2023-05-04T04:05:16.551Z,8.32
2023-05-04T04:07:43.040Z,9.23
2023-05-04T04:10:10.288Z,9.18
2023-05-04T04:12:36.842Z,7.57
2023-05-04T04:15:03.638Z,7.97
2023-05-04T04:17:30.237Z,9.05
2023-05-04T04:19:56.695Z,7.35
2023-05-04T04:22:23.283Z,8.25
2023-05-04T04:24:49.800Z,8.20
2023-05-04T04:27:16.274Z,8.60
2023-05-04T04:29:42.751Z,8.63
2023-05-04T04:32:09.386Z,8.60
2023-05-04T04:34:36.295Z,10.10
2023-05-04T04:37:02.875Z,9.80
2023-05-04T04:39:29.492Z,8.80
2023-05-04T04:41:55.976Z,9.48
2023-05-04T04:44:22.436Z,9.45
2023-05-04T04:46:49.098Z,8.43
2023-05-04T04:49:15.584Z,9.33
2023-05-04T04:51:42.126Z,8.13
2023-05-04T04:54:08.766Z,10.30
2023-05-04T04:56:35.377Z,11.23
2023-05-04T04:59:01.861Z,10.15
2023-05-04T05:01:28.517Z,9.50
2023-05-04T05:03:55.043Z,9.80
2023-05-04T05:06:21.544Z,10.73
2023-05-04T05:08:48.100Z,10.07
2023-05-04T05:11:14.584Z,9.43
2023-05-04T05:13:41.078Z,8.63
2023-05-04T05:16:07.773Z,8.90
2023-05-04T05:18:34.376Z,9.60
2023-05-04T05:21:00.998Z,8.63
2023-05-04T05:23:27.617Z,9.35
2023-05-04T05:25:54.202Z,9.07
2023-05-04T05:28:20.685Z,8.00
2023-05-04T05:30:47.395Z,9.13
2023-05-04T05:33:14.002Z,8.18
2023-05-04T05:35:40.676Z,8.50
2023-05-04T05:38:07.228Z,8.67
2023-05-04T05:40:33.693Z,7.78
2023-05-04T05:43:00.198Z,9.20
2023-05-04T05:45:26.798Z,7.97
2023-05-04T05:47:53.337Z,7.93
2023-05-04T05:50:20.129Z,7.20
2023-05-04T05:52:46.681Z,6.78
2023-05-04T05:55:13.323Z,7.40
2023-05-04T05:57:39.992Z,7.10
2023-05-04T06:00:07.491Z,6.88
2023-05-04T06:02:34.281Z,7.73
2023-05-04T06:05:01.094Z,6.13
2023-05-04T06:07:27.742Z,7.15
2023-05-04T06:09:54.228Z,7.78
2023-05-04T06:12:20.731Z,7.15
2023-05-04T06:14:47.393Z,7.10
2023-05-04T06:17:13.998Z,7.03
2023-05-04T06:19:40.538Z,6.53
2023-05-04T06:22:07.139Z,6.82
2023-05-04T06:24:33.662Z,6.68
2023-05-04T06:27:00.186Z,6.93
2023-05-04T06:29:26.729Z,7.10
2023-05-04T06:31:53.251Z,6.85
2023-05-04T06:34:19.773Z,6.50
2023-05-04T06:36:46.513Z,6.55
2023-05-04T06:39:13.075Z,6.47
2023-05-04T06:41:39.596Z,6.35
2023-05-04T06:44:07.653Z,5.95
2023-05-04T06:46:35.246Z,6.15
2023-05-04T06:49:01.765Z,6.60
2023-05-04T06:51:28.350Z,5.67
2023-05-04T06:53:54.850Z,5.13
2023-05-04T06:56:22.516Z,4.78
2023-05-04T06:58:49.766Z,6.78
2023-05-04T07:01:17.726Z,6.53
2023-05-04T07:03:45.075Z,6.03
2023-05-04T07:06:11.702Z,6.03
2023-05-04T07:08:40.498Z,7.85
2023-05-04T07:11:08.514Z,6.00
2023-05-04T07:13:35.103Z,6.88
2023-05-04T07:16:01.619Z,5.87
2023-05-04T07:18:28.342Z,6.90
2023-05-04T07:21:01.863Z,6.53
2023-05-04T07:23:37.917Z,5.70
2023-05-04T07:26:04.591Z,5.38
2023-05-04T07:28:32.693Z,4.30
2023-05-04T07:30:59.221Z,5.15
2023-05-04T07:33:25.852Z,4.15
2023-05-04T07:35:59.304Z,4.20
2023-05-04T07:38:29.278Z,4.47
2023-05-04T07:40:56.111Z,3.83
2023-05-04T07:43:23.344Z,3.78
2023-05-04T07:45:52.224Z,4.15
2023-05-04T07:48:19.568Z,3.72
2023-05-04T07:50:46.161Z,3.83
2023-05-04T07:53:12.739Z,3.47
2023-05-04T07:55:39.254Z,3.35
2023-05-04T07:58:05.774Z,4.25
2023-05-04T08:00:32.262Z,4.95
2023-05-04T08:02:58.857Z,4.97
2023-05-04T08:05:25.425Z,3.73
2023-05-04T08:07:51.932Z,3.20
2023-05-04T08:10:18.465Z,4.10
2023-05-04T08:12:44.992Z,4.15
2023-05-04T08:15:11.621Z,4.35
2023-05-04T08:17:38.264Z,3.87
2023-05-04T08:20:07.220Z,4.10
2023-05-04T08:22:33.758Z,4.20
2023-05-04T08:25:00.335Z,4.30
2023-05-04T08:27:26.906Z,4.10
2023-05-04T08:29:53.436Z,4.90
2023-05-04T08:32:20.001Z,4.53
2023-05-04T08:34:46.488Z,4.32
2023-05-04T08:37:13.014Z,3.95
2023-05-04T08:39:41.956Z,4.20
2023-05-04T08:42:08.747Z,4.13
2023-05-04T08:44:35.328Z,4.93
2023-05-04T08:47:02.752Z,3.17
2023-05-04T08:49:29.290Z,3.75
2023-05-04T08:51:56.353Z,3.58
2023-05-04T08:54:23.133Z,3.07
2023-05-04T08:56:52.487Z,2.85
2023-05-04T08:59:20.582Z,2.78
2023-05-04T09:01:54.779Z,2.92
2023-05-04T09:04:22.576Z,3.63
2023-05-04T09:06:49.771Z,2.63
2023-05-04T09:09:17.039Z,2.67
2023-05-04T09:11:43.862Z,3.15
2023-05-04T09:14:10.431Z,2.70
2023-05-04T09:16:37.817Z,2.55
2023-05-04T09:19:16.072Z,3.13
2023-05-04T09:21:42.712Z,2.42
2023-05-04T09:24:09.302Z,2.20
2023-05-04T09:26:35.802Z,2.60
2023-05-04T09:29:12.453Z,2.80
2023-05-04T09:31:46.738Z,2.70
2023-05-04T09:34:13.944Z,2.50
2023-05-04T09:36:41.345Z,2.72
2023-05-04T09:39:15.956Z,2.40
2023-05-04T09:41:42.824Z,2.83
2023-05-04T09:44:20.221Z,2.40
2023-05-04T09:46:53.208Z,2.97
2023-05-04T09:49:29.132Z,2.42
2023-05-04T09:51:58.319Z,2.10
2023-05-04T09:54:26.496Z,2.80
2023-05-04T09:56:57.436Z,2.33
2023-05-04T09:59:27.838Z,2.25
2023-05-04T10:01:54.358Z,1.80
2023-05-04T10:04:21.245Z,2.00
2023-05-04T10:06:48.062Z,2.55
2023-05-04T10:09:14.612Z,2.37
2023-05-04T10:11:42.577Z,2.35
2023-05-04T10:14:09.472Z,2.58
2023-05-04T10:17:15.651Z,2.65
2023-05-04T10:20:13.172Z,2.17
2023-05-04T10:22:58.104Z,2.17
2023-05-04T10:25:42.955Z,2.10
2023-05-04T10:28:09.327Z,2.10
2023-05-04T10:30:36.134Z,2.40
2023-05-04T10:33:02.738Z,2.38
2023-05-04T10:35:29.212Z,2.43
2023-05-04T10:37:56.091Z,2.00
2023-05-04T10:40:38.715Z,1.70
2023-05-04T10:43:06.325Z,2.40
2023-05-04T10:45:40.031Z,12.02
2023-05-04T10:48:06.867Z,5.17
2023-05-04T10:50:43.284Z,2.75
2023-05-04T10:53:09.821Z,2.63
2023-05-04T10:55:42.777Z,1.90
2023-05-04T10:58:09.622Z,2.40
2023-05-04T11:00:40.420Z,2.37
2023-05-04T11:03:07.394Z,3.58
2023-05-04T11:05:43.837Z,3.05
2023-05-04T11:08:17.113Z,2.88
2023-05-04T11:10:43.461Z,2.58
2023-05-04T11:13:12.864Z,2.07
2023-05-04T11:15:46.070Z,2.53
2023-05-04T11:18:12.487Z,2.00
2023-05-04T11:20:39.124Z,2.45
2023-05-04T11:23:05.627Z,2.90
2023-05-04T11:25:31.998Z,2.53
2023-05-04T11:27:58.447Z,2.40
2023-05-04T11:30:31.252Z,3.13
2023-05-04T11:32:57.682Z,2.40
2023-05-04T11:35:24.183Z,2.65
2023-05-04T11:37:50.607Z,2.50
2023-05-04T11:40:18.129Z,2.60
2023-05-04T11:42:44.943Z,2.17
2023-05-04T11:45:30.520Z,2.28
2023-05-04T11:47:57.310Z,2.30
2023-05-04T11:50:24.107Z,2.30
2023-05-04T11:52:50.555Z,2.30
2023-05-04T11:55:28.489Z,2.28
2023-05-04T11:58:07.038Z,3.08
2023-05-04T12:00:40.611Z,2.60
2023-05-04T12:03:08.185Z,2.37
2023-05-04T12:05:35.742Z,2.50
2023-05-04T12:08:02.687Z,2.13
2023-05-04T12:10:31.046Z,2.45
2023-05-04T12:12:57.503Z,2.67
2023-05-04T12:15:31.199Z,2.67
2023-05-04T12:17:58.464Z,2.33
2023-05-04T12:20:28.556Z,2.78
2023-05-04T12:22:55.904Z,2.13
2023-05-04T12:25:22.771Z,2.55
2023-05-04T12:27:49.210Z,2.10
2023-05-04T12:30:15.757Z,2.63
2023-05-04T12:32:43.588Z,2.63
2023-05-04T12:35:10.262Z,2.75
2023-05-04T12:37:37.057Z,2.42
2023-05-04T12:40:05.611Z,2.20
2023-05-04T12:42:37.997Z,2.20
2023-05-04T12:45:04.828Z,1.88
2023-05-04T12:47:31.385Z,2.25
2023-05-04T12:49:57.913Z,2.10
2023-05-04T12:52:24.289Z,2.20
2023-05-04T12:54:51.447Z,2.08
2023-05-04T12:57:17.954Z,1.90
2023-05-04T12:59:44.413Z,2.00
2023-05-04T13:02:10.941Z,2.10
2023-05-04T13:04:37.309Z,2.00
2023-05-04T13:07:03.687Z,2.38
2023-05-04T13:09:30.031Z,2.22
2023-05-04T13:11:56.396Z,2.70
2023-05-04T13:14:22.859Z,2.80
2023-05-04T13:16:51.008Z,2.23
2023-05-04T13:19:17.504Z,2.42
2023-05-04T13:21:43.914Z,1.85
2023-05-04T13:24:10.287Z,2.60
2023-05-04T13:26:36.656Z,2.30
2023-05-04T13:29:03.151Z,2.37
2023-05-04T13:31:29.541Z,2.30
2023-05-04T13:33:55.927Z,4.15
2023-05-04T13:36:22.353Z,2.40
2023-05-04T13:38:48.732Z,2.63
2023-05-04T13:41:15.145Z,2.37
2023-05-04T13:43:42.552Z,2.42
2023-05-04T13:46:08.960Z,2.50
2023-05-04T13:48:35.330Z,4.32
2023-05-04T13:51:04.651Z,2.45
2023-05-04T13:53:31.049Z,2.33
2023-05-04T13:55:57.629Z,1.98
2023-05-04T13:58:24.056Z,2.05
2023-05-04T14:00:50.488Z,2.20
2023-05-04T14:03:17.022Z,1.83
2023-05-04T14:05:43.493Z,2.00
2023-05-04T14:08:09.950Z,1.98
2023-05-04T14:10:37.472Z,1.80
2023-05-04T14:13:04.111Z,2.60
2023-05-04T14:15:30.501Z,2.08
2023-05-04T14:17:56.890Z,1.80
2023-05-04T14:20:23.394Z,2.05
2023-05-04T14:22:49.878Z,1.90
2023-05-04T14:25:17.539Z,2.00
2023-05-04T14:27:44.039Z,1.58
2023-05-04T14:30:10.931Z,2.00
2023-05-04T14:32:37.284Z,1.63
2023-05-04T14:35:04.251Z,1.90
2023-05-04T14:37:30.653Z,1.80
2023-05-04T14:39:56.985Z,1.58
2023-05-04T14:42:23.357Z,3.10
2023-05-04T14:44:50.480Z,2.13
2023-05-04T14:47:16.827Z,1.90
2023-05-04T14:49:43.218Z,2.38
2023-05-04T14:52:09.615Z,2.33
2023-05-04T14:54:35.999Z,2.80
2023-05-04T14:57:02.400Z,2.88
2023-05-04T14:59:28.809Z,2.60
2023-05-04T15:01:55.785Z,1.88
2023-05-04T15:04:22.373Z,3.15
2023-05-04T15:06:49.048Z,2.03
2023-05-04T15:09:15.424Z,2.78
2023-05-04T15:11:41.912Z,2.65
2023-05-04T15:14:08.293Z,2.38
2023-05-04T15:16:34.727Z,2.53
2023-05-04T15:19:01.190Z,2.20
2023-05-04T15:21:27.887Z,2.30
2023-05-04T15:23:54.355Z,2.58
2023-05-04T15:26:20.750Z,3.03
2023-05-04T15:28:47.109Z,3.05
2023-05-04T15:31:13.486Z,2.70
2023-05-04T15:33:39.970Z,3.08
2023-05-04T15:36:06.543Z,2.63
2023-05-04T15:38:32.929Z,2.92
2023-05-04T15:40:59.364Z,2.60
2023-05-04T15:43:25.743Z,2.27
2023-05-04T15:45:52.133Z,2.97
2023-05-04T15:48:19.223Z,2.55
2023-05-04T15:50:45.762Z,1.75
2023-05-04T15:53:12.175Z,2.05
2023-05-04T15:55:39.028Z,2.17
2023-05-04T15:58:06.073Z,1.98
2023-05-04T16:00:32.757Z,2.65
2023-05-04T16:02:59.292Z,2.70
2023-05-04T16:05:25.729Z,2.33
2023-05-04T16:07:52.229Z,2.13
2023-05-04T16:10:18.716Z,2.63
2023-05-04T16:12:45.144Z,2.80
2023-05-04T16:15:11.859Z,2.25
2023-05-04T16:17:38.267Z,2.70
2023-05-04T16:20:05.201Z,2.73
2023-05-04T16:22:31.942Z,3.17
2023-05-04T16:24:58.629Z,2.90
2023-05-04T16:27:24.996Z,2.97
2023-05-04T16:29:51.352Z,2.90
2023-05-04T16:32:17.740Z,3.10
2023-05-04T16:34:44.113Z,3.10
2023-05-04T16:37:11.039Z,3.13
2023-05-04T16:39:38.274Z,2.88
2023-05-04T16:42:05.073Z,2.90
2023-05-04T16:44:31.553Z,3.10
2023-05-04T16:46:58.616Z,2.88
2023-05-04T16:49:25.037Z,2.75
2023-05-04T16:51:51.615Z,2.90
2023-05-04T16:54:18.015Z,3.08
2023-05-04T16:56:44.497Z,2.90
2023-05-04T16:59:10.864Z,3.17
2023-05-04T17:01:37.364Z,3.28
2023-05-04T17:04:03.959Z,2.65
2023-05-04T17:06:30.506Z,3.33
2023-05-04T17:08:56.975Z,3.87
2023-05-04T17:11:23.365Z,3.00
2023-05-04T17:13:49.781Z,2.25
2023-05-04T17:16:16.341Z,2.20
2023-05-04T17:18:42.955Z,2.58
2023-05-04T17:21:09.351Z,2.50
2023-05-04T17:23:35.731Z,2.40
2023-05-04T17:26:02.128Z,2.38
2023-05-04T17:28:29.070Z,3.22
2023-05-04T17:30:55.771Z,2.83
2023-05-04T17:33:23.472Z,2.80
2023-05-04T17:35:49.881Z,2.50
2023-05-04T17:38:16.557Z,2.80
2023-05-04T17:40:42.959Z,2.80
2023-05-04T17:43:09.346Z,2.83
2023-05-04T17:45:35.816Z,2.17
2023-05-04T17:48:02.273Z,2.42
2023-05-04T17:50:28.721Z,3.03
2023-05-04T17:52:55.413Z,2.80
2023-05-04T17:55:22.896Z,2.53
2023-05-04T17:57:49.426Z,2.23
2023-05-04T18:00:15.960Z,2.03
2023-05-04T18:02:42.445Z,1.70
2023-05-04T18:05:09.077Z,1.80
2023-05-04T18:07:35.537Z,1.85
2023-05-04T18:10:02.198Z,1.67
2023-05-04T18:12:28.732Z,1.70
2023-05-04T18:14:55.244Z,1.42
2023-05-04T18:17:21.598Z,1.40
2023-05-04T18:19:47.922Z,1.65
2023-05-04T18:22:14.280Z,2.00
2023-05-04T18:24:40.651Z,1.90
2023-05-04T18:27:07.007Z,1.92
2023-05-04T18:29:33.399Z,3.65
2023-05-04T18:31:59.756Z,2.95
2023-05-04T18:34:26.179Z,1.70
2023-05-04T18:36:52.746Z,1.85
2023-05-04T18:39:19.150Z,1.63
2023-05-04T18:41:45.598Z,1.60
2023-05-04T18:44:12.099Z,2.00
2023-05-04T18:46:38.576Z,2.40
2023-05-04T18:49:05.098Z,1.95
2023-05-04T18:51:31.519Z,1.90
2023-05-04T18:53:57.929Z,1.98
2023-05-04T18:56:24.518Z,1.83
2023-05-04T18:58:51.072Z,1.80
2023-05-04T19:01:17.603Z,1.80
2023-05-04T19:03:44.033Z,1.90
2023-05-04T19:06:10.980Z,1.30
2023-05-04T19:08:37.335Z,1.30
2023-05-04T19:11:03.700Z,1.20
2023-05-04T19:13:30.359Z,1.40
2023-05-04T19:15:56.906Z,1.60
2023-05-04T19:18:23.353Z,1.77
2023-05-04T19:20:49.818Z,1.30
2023-05-04T19:23:16.243Z,1.40
2023-05-04T19:25:42.624Z,1.38
2023-05-04T19:28:09.094Z,1.73
2023-05-04T19:30:39.349Z,1.58
2023-05-04T19:33:06.139Z,1.30
2023-05-04T19:35:32.806Z,1.30
2023-05-04T19:37:59.465Z,0.93
2023-05-04T19:40:25.940Z,1.08
2023-05-04T19:42:52.401Z,1.05
2023-05-04T19:45:18.894Z,1.08
2023-05-04T19:47:45.417Z,0.97
2023-05-04T19:50:11.995Z,0.70
2023-05-04T19:52:38.500Z,1.15
2023-05-04T19:55:06.392Z,1.38
2023-05-04T19:57:33.096Z,2.70
2023-05-04T19:59:59.566Z,2.20
2023-05-04T20:02:26.181Z,1.90
2023-05-04T20:04:52.738Z,1.27
2023-05-04T20:07:19.248Z,1.30
2023-05-04T20:09:45.681Z,1.15
2023-05-04T20:12:12.273Z,1.60
2023-05-04T20:14:38.692Z,1.30
2023-05-04T20:17:05.089Z,1.20
2023-05-04T20:19:31.597Z,1.20
2023-05-04T20:21:58.082Z,1.00
2023-05-04T20:24:24.548Z,0.95
2023-05-04T20:26:51.170Z,1.55
2023-05-04T20:29:17.622Z,1.40
2023-05-04T20:31:44.122Z,1.33
2023-05-04T20:34:10.635Z,1.50
2023-05-04T20:36:37.111Z,1.40
2023-05-04T20:39:03.623Z,1.50
2023-05-04T20:41:30.106Z,1.30
2023-05-04T20:43:56.548Z,1.60
2023-05-04T20:46:23.005Z,1.60
2023-05-04T20:48:49.605Z,1.67
2023-05-04T20:51:16.105Z,1.98
2023-05-04T20:53:42.600Z,1.60
2023-05-04T20:56:09.133Z,1.45
2023-05-04T20:58:35.584Z,1.65
2023-05-04T21:01:05.391Z,1.30
2023-05-04T21:03:32.276Z,2.17
2023-05-04T21:05:58.951Z,2.30
2023-05-04T21:08:25.460Z,1.92
2023-05-04T21:10:52.017Z,1.60
2023-05-04T21:13:18.455Z,1.63
2023-05-04T21:15:44.978Z,1.73
2023-05-04T21:18:11.608Z,1.65
2023-05-04T21:20:38.366Z,1.55
2023-05-04T21:23:04.813Z,1.80
2023-05-04T21:25:31.324Z,2.63
2023-05-04T21:27:57.806Z,1.90
2023-05-04T21:30:24.349Z,4.43
2023-05-04T21:32:50.984Z,2.20
2023-05-04T21:35:17.551Z,3.40
2023-05-04T21:37:44.057Z,2.63
2023-05-04T21:40:10.791Z,3.85
2023-05-04T21:42:37.174Z,2.72
2023-05-04T21:45:03.783Z,2.50
2023-05-04T21:47:30.444Z,2.72
2023-05-04T21:49:56.888Z,2.72
2023-05-04T21:52:23.614Z,2.13
2023-05-04T21:54:50.023Z,2.70
2023-05-04T21:57:16.521Z,2.40
2023-05-04T21:59:42.863Z,1.77
2023-05-04T22:02:09.368Z,1.92
2023-05-04T22:04:35.844Z,2.17
2023-05-04T22:07:02.239Z,2.28
2023-05-04T22:09:28.658Z,2.05
2023-05-04T22:11:54.995Z,1.60
2023-05-04T22:14:21.363Z,2.72
2023-05-04T22:16:47.799Z,2.88
2023-05-04T22:19:14.720Z,2.65
2023-05-04T22:21:41.069Z,2.25
2023-05-04T22:24:07.510Z,2.40
2023-05-04T22:26:33.884Z,2.50
2023-05-04T22:29:00.247Z,2.65
2023-05-04T22:31:26.712Z,2.65
2023-05-04T22:33:53.148Z,2.85
2023-05-04T22:36:19.493Z,2.83
2023-05-04T22:38:45.911Z,3.05
2023-05-04T22:41:15.322Z,2.47
2023-05-04T22:43:41.659Z,2.55
2023-05-04T22:46:13.511Z,2.63
2023-05-04T22:48:39.860Z,2.40
2023-05-04T22:51:06.216Z,2.47
2023-05-04T22:53:32.667Z,2.40
2023-05-04T22:55:59.420Z,2.63
2023-05-04T22:58:25.743Z,2.33
2023-05-04T23:00:52.141Z,2.63
2023-05-04T23:03:18.697Z,2.47
2023-05-04T23:05:45.157Z,2.70
2023-05-04T23:08:11.625Z,2.92
2023-05-04T23:10:38.001Z,2.58
2023-05-04T23:13:04.388Z,2.72
2023-05-04T23:15:30.782Z,3.00
2023-05-04T23:17:57.134Z,3.33
2023-05-04T23:20:23.597Z,3.20
2023-05-04T23:22:49.992Z,3.05
2023-05-04T23:25:16.357Z,2.97
2023-05-04T23:27:42.762Z,3.20
2023-05-04T23:30:09.472Z,3.30
2023-05-04T23:32:36.070Z,3.50
2023-05-04T23:35:02.440Z,3.33
2023-05-04T23:37:30.345Z,3.30
2023-05-04T23:39:56.706Z,2.97
2023-05-04T23:42:23.057Z,4.05
2023-05-04T23:44:49.453Z,3.55
2023-05-04T23:47:15.803Z,3.75
2023-05-04T23:49:42.154Z,4.20
2023-05-04T23:52:08.547Z,4.63
2023-05-04T23:54:34.904Z,3.72
2023-05-04T23:57:01.620Z,3.65
2023-05-04T23:59:28.024Z,3.70
